createdAt,value
2017-03-13T06:57:29.608Z,0.27
2017-03-13T06:58:29.417Z,0.27
2017-03-13T06:59:29.446Z,0.23
2017-03-13T07:00:29.469Z,0.35
2017-03-13T07:01:29.506Z,0.27
2017-03-13T07:02:29.515Z,0.28
2017-03-13T07:03:29.539Z,0.34
2017-03-13T07:04:29.577Z,0.34
2017-03-13T07:05:29.608Z,0.41
2017-03-13T07:06:29.616Z,0.44
2017-03-13T07:07:29.645Z,0.38
2017-03-13T07:08:29.648Z,0.44
2017-03-13T07:09:29.681Z,0.48
2017-03-13T07:10:29.711Z,0.58
2017-03-13T07:11:29.733Z,0.64
2017-03-13T07:12:29.759Z,0.82
2017-03-13T07:13:29.772Z,1.1
2017-03-13T07:14:29.816Z,1.28
2017-03-13T07:15:29.814Z,1.26
2017-03-13T07:16:29.851Z,1.18
2017-03-13T07:17:29.868Z,1.21
2017-03-13T07:18:29.896Z,1.39
2017-03-13T07:19:29.918Z,1.48
2017-03-13T07:20:29.943Z,1.58
2017-03-13T07:21:29.966Z,1.72
2017-03-13T07:22:30.004Z,2.26
2017-03-13T07:23:30.031Z,2.69
2017-03-13T07:24:30.058Z,3.17
2017-03-13T07:25:30.069Z,3.48
2017-03-13T07:26:30.103Z,3.67
2017-03-13T07:27:30.117Z,3.79
2017-03-13T07:28:30.159Z,4.14
2017-03-13T07:29:30.186Z,4.33
2017-03-13T07:30:30.188Z,4.66
2017-03-13T07:31:30.215Z,4.98
2017-03-13T07:32:30.227Z,5.18
2017-03-13T07:33:30.286Z,5.62
2017-03-13T07:34:30.290Z,5.62
2017-03-13T07:35:30.318Z,5.62
2017-03-13T07:36:30.352Z,5.7
2017-03-13T07:37:30.411Z,5.77
2017-03-13T07:38:30.407Z,5.85
2017-03-13T07:39:30.451Z,6.21
2017-03-13T07:40:30.490Z,6.72
2017-03-13T07:41:30.482Z,7.13
2017-03-13T07:42:30.506Z,7.44
2017-03-13T07:43:30.543Z,7.61
2017-03-13T07:44:30.560Z,7.83
2017-03-13T07:45:30.587Z,7.85
2017-03-13T07:46:30.617Z,8.31
2017-03-13T07:47:30.656Z,8.57
2017-03-13T07:48:30.653Z,8.83
2017-03-13T07:49:30.694Z,9.09
2017-03-13T07:50:30.719Z,9.24
2017-03-13T07:51:30.755Z,9.44
2017-03-13T07:52:30.777Z,9.34
2017-03-13T07:53:30.816Z,9.26
2017-03-13T07:54:30.838Z,9.09
2017-03-13T07:55:30.894Z,8.85
2017-03-13T07:56:30.892Z,8.76
2017-03-13T07:57:30.938Z,8.47
2017-03-13T07:58:30.959Z,8.21
2017-03-13T07:59:30.980Z,7.82
2017-03-13T08:00:31.158Z,7.41
2017-03-13T08:01:31.040Z,7.29
2017-03-13T08:02:31.068Z,7.11
2017-03-13T08:03:31.311Z,6.8
2017-03-13T08:04:31.157Z,6.54
2017-03-13T08:05:31.426Z,6.2
2017-03-13T08:06:31.444Z,6.21
2017-03-13T08:07:31.224Z,6.2
2017-03-13T08:08:31.297Z,6.17
2017-03-13T08:09:31.318Z,6.18
2017-03-13T08:10:31.310Z,6.36
2017-03-13T08:11:31.374Z,6.52
2017-03-13T08:12:31.351Z,6.76
2017-03-13T08:13:31.412Z,6.94
2017-03-13T08:14:31.410Z,7.19
2017-03-13T08:15:31.483Z,7.34
2017-03-13T08:16:31.507Z,7.27
2017-03-13T08:17:31.539Z,7.19
2017-03-13T08:18:31.526Z,7.12
2017-03-13T08:19:31.578Z,7.18
2017-03-13T08:20:31.587Z,7.16
2017-03-13T08:21:31.606Z,6.94
2017-03-13T08:22:31.645Z,6.91
2017-03-13T08:23:31.721Z,6.94
2017-03-13T08:24:31.717Z,7.3
2017-03-13T08:25:31.743Z,7.59
2017-03-13T08:26:31.759Z,7.82
2017-03-13T08:27:31.801Z,8.1
2017-03-13T08:28:31.845Z,8.42
2017-03-13T08:29:31.856Z,8.69
2017-03-13T08:30:31.896Z,8.95
2017-03-13T08:31:31.903Z,9.21
2017-03-13T08:32:31.955Z,9.44
2017-03-13T08:33:31.986Z,9.78
2017-03-13T08:34:32.027Z,9.89
2017-03-13T08:35:32.035Z,10.33
2017-03-13T08:36:32.081Z,10.33
2017-03-13T08:37:32.109Z,10.42
2017-03-13T08:38:32.144Z,10.29
2017-03-13T08:39:32.602Z,10.32
2017-03-13T08:40:32.194Z,10.55
2017-03-13T08:41:32.220Z,11.12
2017-03-13T08:42:32.254Z,11.88
2017-03-13T08:43:32.283Z,12.13
2017-03-13T08:44:32.309Z,12.1
2017-03-13T08:45:32.373Z,12.23
2017-03-13T08:46:32.377Z,12.65
2017-03-13T08:47:33.263Z,13.06
2017-03-13T08:48:32.679Z,13.32
2017-03-13T08:49:32.699Z,13.16
2017-03-13T08:50:32.746Z,12.66
2017-03-13T08:51:32.693Z,11.94
2017-03-13T08:52:32.779Z,11.13
2017-03-13T08:53:32.621Z,10.51
2017-03-13T08:54:32.634Z,9.88
2017-03-13T08:55:32.678Z,9.32
2017-03-13T08:56:32.722Z,8.92
2017-03-13T08:57:32.757Z,8.58
2017-03-13T08:58:32.782Z,8.52
2017-03-13T08:59:33.253Z,8.5
2017-03-13T09:00:33.097Z,8.65
2017-03-13T09:01:33.499Z,9
2017-03-13T09:02:33.128Z,9.59
2017-03-13T09:03:33.560Z,9.93
2017-03-13T09:04:32.975Z,10.31
2017-03-13T09:05:33.543Z,10.87
2017-03-13T09:06:33.026Z,11.51
2017-03-13T09:07:33.057Z,12.08
2017-03-13T09:08:33.702Z,12.73
2017-03-13T09:09:33.143Z,13.19
2017-03-13T09:10:33.168Z,13.37
2017-03-13T09:11:33.194Z,13.53
2017-03-13T09:12:33.236Z,13.72
2017-03-13T09:13:34.081Z,14.01
2017-03-13T09:14:33.514Z,14.23
2017-03-13T09:15:33.330Z,14.51
2017-03-13T09:16:33.372Z,14.63
2017-03-13T09:17:33.401Z,14.8
2017-03-13T09:18:33.429Z,15.04
2017-03-13T09:19:34.687Z,15.4
2017-03-13T09:20:33.505Z,16
2017-03-13T09:21:33.691Z,16.69
2017-03-13T09:22:34.200Z,16.95
2017-03-13T09:23:33.605Z,17.36
2017-03-13T09:24:33.851Z,17.43
2017-03-13T09:25:33.686Z,17.57
2017-03-13T09:26:34.279Z,17.45
2017-03-13T09:27:33.973Z,17.76
2017-03-13T09:28:34.640Z,17.76
2017-03-13T09:29:33.823Z,17.46
2017-03-13T09:30:33.860Z,17.42
2017-03-13T09:31:34.026Z,17.84
2017-03-13T09:32:34.200Z,18.13
2017-03-13T09:33:34.245Z,18.06
2017-03-13T09:34:34.006Z,17.98
2017-03-13T09:35:34.044Z,17.3
2017-03-13T09:36:34.088Z,16.84
2017-03-13T09:37:34.127Z,16.74
2017-03-13T09:38:34.170Z,16.47
2017-03-13T09:39:34.457Z,16.48
2017-03-13T09:40:34.419Z,16.87
2017-03-13T09:41:34.472Z,17.21
2017-03-13T09:42:35.136Z,17.6
2017-03-13T09:43:34.363Z,18.06
2017-03-13T09:44:34.407Z,18.41
2017-03-13T09:45:34.429Z,18.6
2017-03-13T09:46:34.462Z,18.86
2017-03-13T09:47:34.515Z,18.99
2017-03-13T09:48:34.521Z,18.79
2017-03-13T09:49:34.578Z,18.69
2017-03-13T09:50:34.611Z,18.53
2017-03-13T09:51:34.658Z,18.51
2017-03-13T09:52:34.699Z,18.56
2017-03-13T09:53:35.825Z,18.57
2017-03-13T09:54:34.772Z,18.63
2017-03-13T09:55:34.805Z,18.81
2017-03-13T09:56:34.824Z,18.59
2017-03-13T09:57:34.891Z,18.11
2017-03-13T09:58:34.915Z,17.81
2017-03-13T09:59:34.954Z,17.4
2017-03-13T10:00:35.004Z,17.15
2017-03-13T10:01:35.044Z,16.67
2017-03-13T10:02:35.075Z,16.59
2017-03-13T10:03:35.113Z,16.84
2017-03-13T10:04:35.152Z,16.69
2017-03-13T10:05:35.184Z,16.66
2017-03-13T10:06:35.220Z,16.48
2017-03-13T10:07:35.272Z,16.49
2017-03-13T10:08:35.294Z,16.4
2017-03-13T10:09:35.327Z,16.14
2017-03-13T10:10:35.374Z,15.78
2017-03-13T10:11:35.412Z,15.44
2017-03-13T10:12:35.437Z,15.47
2017-03-13T10:13:35.483Z,15.27
2017-03-13T10:14:35.517Z,15.08
2017-03-13T10:15:35.564Z,14.87
2017-03-13T10:16:35.582Z,14.64
2017-03-13T10:17:36.491Z,14.2
2017-03-13T10:18:35.674Z,13.9
2017-03-13T10:19:35.709Z,13.78
2017-03-13T10:20:36.413Z,13.87
2017-03-13T10:21:35.777Z,14.03
2017-03-13T10:22:35.797Z,14.38
2017-03-13T10:23:36.167Z,14.51
2017-03-13T10:24:35.877Z,14.06
2017-03-13T10:25:35.909Z,13.9
2017-03-13T10:26:35.955Z,13.95
2017-03-13T10:27:36.023Z,13.94
2017-03-13T10:28:36.021Z,14.16
2017-03-13T10:29:36.037Z,14.7
2017-03-13T10:30:36.078Z,14.85
2017-03-13T10:31:36.120Z,15.13
2017-03-13T10:32:36.170Z,15.62
2017-03-13T10:33:36.209Z,16.16
2017-03-13T10:34:36.228Z,16.8
2017-03-13T10:35:36.246Z,16.92
2017-03-13T10:36:36.289Z,16.94
2017-03-13T10:37:36.326Z,17.25
2017-03-13T10:38:36.418Z,17.6
2017-03-13T10:39:36.408Z,17.83
2017-03-13T10:40:36.427Z,18.06
2017-03-13T10:41:36.865Z,18.42
2017-03-13T10:42:36.491Z,18.38
2017-03-13T10:43:36.763Z,18.38
2017-03-13T10:44:36.550Z,18.1
2017-03-13T10:45:36.749Z,17.79
2017-03-13T10:46:36.632Z,17.69
2017-03-13T10:47:36.668Z,17.57
2017-03-13T10:48:36.676Z,17.15
2017-03-13T10:49:36.954Z,17.1
2017-03-13T10:50:36.973Z,16.39
2017-03-13T10:51:36.822Z,16.07
2017-03-13T10:52:36.868Z,16.14
2017-03-13T10:53:37.060Z,16.17
2017-03-13T10:54:37.118Z,16.11
2017-03-13T10:55:36.930Z,16.17
2017-03-13T10:56:36.974Z,16.13
2017-03-13T10:57:37.225Z,16.13
2017-03-13T10:58:37.257Z,16.13
2017-03-13T10:59:37.108Z,16.55
2017-03-13T11:00:37.097Z,16.92
2017-03-13T11:01:37.179Z,17.05
2017-03-13T11:02:37.382Z,17.25
2017-03-13T11:03:37.212Z,16.97
2017-03-13T11:04:37.232Z,17.18
2017-03-13T11:05:37.733Z,17.49
2017-03-13T11:06:37.298Z,17.5
2017-03-13T11:07:37.329Z,17.73
2017-03-13T11:08:37.352Z,17.69
2017-03-13T11:09:37.406Z,17.84
2017-03-13T11:10:37.428Z,17.79
2017-03-13T11:11:37.458Z,17.57
2017-03-13T11:12:37.494Z,17.46
2017-03-13T11:13:37.508Z,17.42
2017-03-13T11:14:38.229Z,17.15
2017-03-13T11:15:37.587Z,16.97
2017-03-13T11:16:38.068Z,16.88
2017-03-13T11:17:37.671Z,16.7
2017-03-13T11:18:37.686Z,16.73
2017-03-13T11:19:37.723Z,16.42
2017-03-13T11:20:37.756Z,16.3
2017-03-13T11:21:37.813Z,15.7
2017-03-13T11:22:37.834Z,15.58
2017-03-13T11:23:37.867Z,15.25
2017-03-13T11:24:37.914Z,15.05
2017-03-13T11:25:37.920Z,15.07
2017-03-13T11:26:37.955Z,15.37
2017-03-13T11:27:37.991Z,15.65
2017-03-13T11:28:38.050Z,16.1
2017-03-13T11:29:38.061Z,16.26
2017-03-13T11:30:38.086Z,16.45
2017-03-13T11:31:38.124Z,16.58
2017-03-13T11:32:38.369Z,16.7
2017-03-13T11:33:38.421Z,16.7
2017-03-13T11:34:38.219Z,16.69
2017-03-13T11:35:38.269Z,16.73
2017-03-13T11:36:38.288Z,16.76
2017-03-13T11:37:38.311Z,16.9
2017-03-13T11:38:38.363Z,16.95
2017-03-13T11:39:38.399Z,16.77
2017-03-13T11:40:38.408Z,16.4
2017-03-13T11:41:38.459Z,16.47
2017-03-13T11:42:38.477Z,16.62
2017-03-13T11:43:38.729Z,16.81
2017-03-13T11:44:38.972Z,17.09
2017-03-13T11:45:38.590Z,17.35
2017-03-13T11:46:38.635Z,17.12
2017-03-13T11:47:38.647Z,16.82
2017-03-13T11:48:38.677Z,16.55
2017-03-13T11:49:38.720Z,16.3
2017-03-13T11:50:38.740Z,16.14
2017-03-13T11:51:38.784Z,15.73
2017-03-13T11:52:38.811Z,15.56
2017-03-13T11:53:38.838Z,15.35
2017-03-13T11:54:38.900Z,15.38
2017-03-13T11:55:39.115Z,15.52
2017-03-13T11:56:38.938Z,15.58
2017-03-13T11:57:38.969Z,15.68
2017-03-13T11:58:38.991Z,15.51
2017-03-13T11:59:39.026Z,15.26
2017-03-13T12:00:39.075Z,14.8
2017-03-13T12:01:39.082Z,14.39
2017-03-13T12:02:39.123Z,13.94
2017-03-13T12:03:39.147Z,13.7
2017-03-13T12:04:39.496Z,13.48
2017-03-13T12:05:39.444Z,13.19
2017-03-13T12:06:39.255Z,13.14
2017-03-13T12:07:39.268Z,12.98
2017-03-13T12:08:39.328Z,12.66
2017-03-13T12:09:39.317Z,12.37
2017-03-13T12:10:39.379Z,11.89
2017-03-13T12:11:39.391Z,11.61
2017-03-13T12:12:39.436Z,11.2
2017-03-13T12:13:40.244Z,11.08
2017-03-13T12:14:39.961Z,10.88
2017-03-13T12:15:39.529Z,10.65
2017-03-13T12:16:39.551Z,10.52
2017-03-13T12:17:39.589Z,10.35
2017-03-13T12:18:39.613Z,10.49
2017-03-13T12:19:40.588Z,10.29
2017-03-13T12:20:39.731Z,10.39
2017-03-13T12:21:41.598Z,10.32
2017-03-13T12:22:39.730Z,10.42
2017-03-13T12:23:39.771Z,10.46
2017-03-13T12:24:41.096Z,10.33
2017-03-13T12:25:39.842Z,10.33
2017-03-13T12:26:40.473Z,10.33
2017-03-13T12:27:39.905Z,10.51
2017-03-13T12:28:39.948Z,10.47
2017-03-13T12:29:39.965Z,10.41
2017-03-13T12:30:39.987Z,10.41
2017-03-13T12:31:40.050Z,10.47
2017-03-13T12:32:40.055Z,10.41
2017-03-13T12:33:40.091Z,10.35
2017-03-13T12:34:40.734Z,10.35
2017-03-13T12:35:40.154Z,10.32
2017-03-13T12:36:40.148Z,10.42
2017-03-13T12:37:40.204Z,10.54
2017-03-13T12:38:40.251Z,10.58
2017-03-13T12:39:40.273Z,10.65
2017-03-13T12:40:40.301Z,10.69
2017-03-13T12:41:40.342Z,10.72
2017-03-13T12:42:40.372Z,10.77
2017-03-13T12:43:40.394Z,10.76
2017-03-13T12:44:40.419Z,10.83
2017-03-13T12:45:40.463Z,10.95
2017-03-13T12:46:40.488Z,11.05
2017-03-13T12:47:40.518Z,11.06
2017-03-13T12:48:40.541Z,11.09
2017-03-13T12:49:41.200Z,11.09
2017-03-13T12:50:40.611Z,11.15
2017-03-13T12:54:19.199Z,11.45
2017-03-13T12:55:19.247Z,11.53
2017-03-13T12:56:19.264Z,11.6
2017-03-13T12:57:19.546Z,11.66
2017-03-13T12:58:19.554Z,11.7
2017-03-13T12:59:19.357Z,11.82
2017-03-13T13:00:19.385Z,11.85
2017-03-13T13:01:19.396Z,11.76
2017-03-13T13:02:19.439Z,11.86
2017-03-13T13:03:19.493Z,11.86
2017-03-13T13:04:19.505Z,11.76
2017-03-13T13:05:19.541Z,11.81
2017-03-13T13:06:20.199Z,11.76
2017-03-13T13:07:19.614Z,11.73
2017-03-13T13:08:19.638Z,11.6
2017-03-13T13:09:19.668Z,11.61
2017-03-13T13:10:19.692Z,11.59
2017-03-13T13:11:19.721Z,11.48
2017-03-13T13:12:19.796Z,11.57
2017-03-13T13:13:19.796Z,11.49
2017-03-13T13:14:20.662Z,11.49
2017-03-13T13:15:19.858Z,11.56
2017-03-13T13:16:19.894Z,11.45
2017-03-13T13:17:19.928Z,11.43
2017-03-13T13:18:20.051Z,11.33
2017-03-13T13:19:19.973Z,11.35
2017-03-13T13:20:20.010Z,11.3
2017-03-13T13:21:20.040Z,11.28
2017-03-13T13:22:20.084Z,11.18
2017-03-13T13:23:20.107Z,11.12
2017-03-13T13:24:20.137Z,11.06
2017-03-13T13:25:20.160Z,10.95
2017-03-13T13:26:20.810Z,10.76
2017-03-13T13:27:20.247Z,10.72
2017-03-13T13:28:20.263Z,10.73
2017-03-13T13:29:20.307Z,10.67
2017-03-13T13:30:20.503Z,10.77
2017-03-13T13:31:20.355Z,10.75
2017-03-13T13:32:20.387Z,10.8
2017-03-13T13:33:20.431Z,10.87
2017-03-13T13:34:20.463Z,10.88
2017-03-13T13:35:20.490Z,10.87
2017-03-13T13:36:20.518Z,10.9
2017-03-13T13:37:20.542Z,10.88
2017-03-13T13:38:20.590Z,10.98
2017-03-13T13:39:20.617Z,11.02
2017-03-13T13:40:20.997Z,10.97
2017-03-13T13:41:20.689Z,11.06
2017-03-13T13:42:20.737Z,10.92
2017-03-13T13:43:20.750Z,10.9
2017-03-13T13:44:20.763Z,10.88
2017-03-13T13:45:20.901Z,10.9
2017-03-13T13:46:20.831Z,10.87
2017-03-13T13:47:20.865Z,10.88
2017-03-13T13:48:20.886Z,10.88
2017-03-13T13:49:20.926Z,10.84
2017-03-13T13:50:21.112Z,10.8
2017-03-13T13:51:20.986Z,10.7
2017-03-13T13:52:21.021Z,10.72
2017-03-13T13:53:21.059Z,10.63
2017-03-13T13:54:21.078Z,10.75
2017-03-13T13:55:21.122Z,10.65
2017-03-13T13:56:21.146Z,10.69
2017-03-13T13:57:21.195Z,10.66
2017-03-13T13:58:21.216Z,10.67
2017-03-13T13:59:21.244Z,10.75
2017-03-13T14:00:21.274Z,10.66
2017-03-13T14:01:21.305Z,10.73
2017-03-13T14:02:21.356Z,10.87
2017-03-13T14:03:21.351Z,10.9
2017-03-13T14:04:21.396Z,10.97
2017-03-13T14:05:21.430Z,10.95
2017-03-13T14:06:21.462Z,11.03
2017-03-13T14:07:21.486Z,10.95
2017-03-13T14:08:21.507Z,11.02
2017-03-13T14:09:21.557Z,11.09
2017-03-13T14:10:21.575Z,10.97
2017-03-13T14:11:21.616Z,11.05
2017-03-13T14:12:21.659Z,10.97
2017-03-13T14:13:21.678Z,11
2017-03-13T14:14:21.714Z,10.88
2017-03-13T14:15:21.752Z,10.66
2017-03-13T14:16:21.773Z,10.66
2017-03-13T14:17:21.813Z,10.63
2017-03-13T14:18:21.836Z,10.61
2017-03-13T14:19:21.864Z,10.55
2017-03-13T14:20:21.908Z,10.58
2017-03-13T14:21:21.930Z,10.57
2017-03-13T14:22:21.965Z,10.55
2017-03-13T14:23:22.000Z,10.44
2017-03-13T14:24:22.032Z,10.39
2017-03-13T14:25:22.053Z,10.49
2017-03-13T14:26:22.083Z,10.44
2017-03-13T14:27:22.114Z,10.39
2017-03-13T14:28:22.134Z,10.46
2017-03-13T14:29:22.190Z,10.49
2017-03-13T14:30:22.240Z,10.44
2017-03-13T14:31:22.245Z,10.33
2017-03-13T14:32:22.275Z,10.33
2017-03-13T14:33:22.301Z,10.36
2017-03-13T14:34:22.334Z,10.31
2017-03-13T14:35:22.364Z,10.28
2017-03-13T14:36:22.396Z,10.25
2017-03-13T14:37:22.432Z,10.25
2017-03-13T14:38:22.491Z,10.26
2017-03-13T14:39:22.499Z,10.26
2017-03-13T14:40:22.535Z,10.2
2017-03-13T14:41:22.550Z,10.25
2017-03-13T14:42:22.579Z,10.31
2017-03-13T14:43:22.637Z,10.11
2017-03-13T14:44:22.650Z,10.07
2017-03-13T14:45:22.681Z,9.96
2017-03-13T14:46:22.710Z,9.98
2017-03-13T14:47:22.740Z,9.96
2017-03-13T14:48:22.772Z,9.95
2017-03-13T14:49:22.806Z,9.92
2017-03-13T14:50:22.823Z,10
2017-03-13T14:51:22.859Z,9.95
2017-03-13T14:52:22.901Z,9.96
2017-03-13T14:53:22.929Z,9.9
2017-03-13T14:54:22.958Z,9.96
2017-03-13T14:55:22.987Z,9.84
2017-03-13T14:56:23.031Z,9.9
2017-03-13T14:57:23.054Z,9.85
2017-03-13T14:58:23.094Z,9.88
2017-03-13T14:59:23.117Z,9.82
2017-03-13T15:00:23.149Z,9.8
2017-03-13T15:01:23.168Z,9.85
2017-03-13T15:02:23.207Z,9.82
2017-03-13T15:03:23.238Z,9.8
2017-03-13T15:04:23.258Z,9.7
2017-03-13T15:05:23.321Z,9.77
2017-03-13T15:06:23.334Z,9.75
2017-03-13T15:07:23.361Z,9.72
2017-03-13T15:08:23.381Z,9.63
2017-03-13T15:09:23.430Z,9.7
2017-03-13T15:10:23.437Z,9.62
2017-03-13T15:11:23.481Z,9.66
2017-03-13T15:12:23.506Z,9.56
2017-03-13T15:13:23.536Z,9.63
2017-03-13T15:14:23.569Z,9.62
2017-03-13T15:15:23.595Z,9.56
2017-03-13T15:16:23.628Z,9.5
2017-03-13T15:17:23.666Z,9.52
2017-03-13T15:18:23.695Z,9.5
2017-03-13T15:19:23.734Z,9.44
2017-03-13T15:20:23.755Z,9.48
2017-03-13T15:21:23.761Z,9.55
2017-03-13T15:22:23.814Z,9.45
2017-03-13T15:23:23.830Z,9.45
2017-03-13T15:24:23.887Z,9.39
2017-03-13T15:25:23.902Z,9.37
2017-03-13T15:26:23.930Z,9.42
2017-03-13T15:27:23.963Z,9.34
2017-03-13T15:28:23.997Z,9.37
2017-03-13T15:29:24.026Z,9.37
2017-03-13T15:30:24.063Z,9.35
2017-03-13T15:31:24.114Z,9.37
2017-03-13T15:32:24.099Z,9.3
2017-03-13T15:33:24.153Z,9.23
2017-03-13T15:34:24.178Z,9.2
2017-03-13T15:35:24.210Z,9.14
2017-03-13T15:36:24.229Z,9.17
2017-03-13T15:37:24.265Z,9.16
2017-03-13T15:38:24.308Z,9.12
2017-03-13T15:39:24.346Z,9.11
2017-03-13T15:40:24.359Z,9.09
2017-03-13T15:41:24.392Z,9.21
2017-03-13T15:42:24.412Z,9.08
2017-03-13T15:43:24.459Z,9.01
2017-03-13T15:44:24.487Z,9.01
2017-03-13T15:45:24.665Z,9.03
2017-03-13T15:46:24.539Z,9.05
2017-03-13T15:47:24.566Z,9.03
2017-03-13T15:48:24.613Z,9.01
2017-03-13T15:49:24.615Z,9.01
2017-03-13T15:50:24.651Z,8.92
2017-03-13T15:51:24.695Z,8.92
2017-03-13T15:52:24.730Z,8.92
2017-03-13T15:53:24.752Z,8.89
2017-03-13T15:54:24.789Z,8.92
2017-03-13T15:55:24.812Z,8.83
2017-03-13T15:56:24.835Z,8.85
2017-03-13T15:57:24.872Z,8.76
2017-03-13T15:58:24.905Z,8.86
2017-03-13T15:59:24.926Z,8.79
2017-03-13T16:00:24.959Z,8.79
2017-03-13T16:01:24.986Z,8.76
2017-03-13T16:02:25.019Z,8.71
2017-03-13T16:03:25.041Z,8.71
2017-03-13T16:04:25.086Z,8.65
2017-03-13T16:05:25.120Z,8.64
2017-03-13T16:06:25.140Z,8.65
2017-03-13T16:07:25.173Z,8.65
2017-03-13T16:08:25.206Z,8.6
2017-03-13T16:09:25.224Z,8.54
2017-03-13T16:10:25.255Z,8.6
2017-03-13T16:11:25.285Z,8.58
2017-03-13T16:12:25.327Z,8.57
2017-03-13T16:13:25.357Z,8.64
2017-03-13T16:14:25.382Z,8.52
2017-03-13T16:15:25.555Z,8.5
2017-03-13T16:16:25.456Z,8.5
2017-03-13T16:17:25.484Z,8.47
2017-03-13T16:18:25.510Z,8.43
2017-03-13T16:19:25.527Z,8.42
2017-03-13T16:20:25.550Z,8.42
2017-03-13T16:21:25.585Z,8.39
2017-03-13T16:22:25.620Z,8.31
2017-03-13T16:23:25.647Z,8.32
2017-03-13T16:24:25.675Z,8.35
2017-03-13T16:25:25.957Z,8.31
2017-03-13T16:26:25.750Z,8.28
2017-03-13T16:27:25.765Z,8.29
2017-03-13T16:28:25.791Z,8.26
2017-03-13T16:29:25.839Z,8.22
2017-03-13T16:30:25.863Z,8.24
2017-03-13T16:31:25.888Z,8.25
2017-03-13T16:32:25.921Z,8.17
2017-03-13T16:33:25.935Z,8.13
2017-03-13T16:34:25.985Z,8.07
2017-03-13T16:35:25.988Z,8.13
2017-03-13T16:36:26.058Z,8.04
2017-03-13T16:37:26.061Z,8.14
2017-03-13T16:38:26.108Z,8.07
2017-03-13T16:39:26.130Z,7.95
2017-03-13T16:40:26.161Z,7.96
2017-03-13T16:41:25.599Z,8.03
2017-03-13T16:42:25.626Z,7.98
2017-03-13T16:43:25.656Z,7.98
2017-03-13T16:44:25.689Z,7.89
2017-03-13T16:45:25.713Z,7.93
2017-03-13T16:46:25.747Z,7.95
2017-03-13T16:47:25.773Z,7.89
2017-03-13T16:48:25.808Z,7.78
2017-03-13T16:49:25.834Z,7.83
2017-03-13T16:50:25.859Z,7.83
2017-03-13T16:51:25.894Z,7.8
2017-03-13T16:52:25.918Z,7.73
2017-03-13T16:53:25.951Z,7.73
2017-03-13T16:54:25.994Z,7.74
2017-03-13T16:55:26.012Z,7.74
2017-03-13T16:56:26.038Z,7.74
2017-03-13T16:57:26.085Z,7.75
2017-03-13T16:58:26.110Z,7.61
2017-03-13T16:59:26.122Z,7.59
2017-03-13T17:00:26.163Z,7.73
2017-03-13T17:01:26.181Z,7.71
2017-03-13T17:02:26.216Z,7.73
2017-03-13T17:03:26.241Z,7.73
2017-03-13T17:04:26.262Z,7.73
2017-03-13T17:05:26.309Z,7.74
2017-03-13T17:06:26.337Z,7.64
2017-03-13T17:07:26.363Z,7.64
2017-03-13T17:08:26.397Z,7.61
2017-03-13T17:09:26.423Z,7.71
2017-03-13T17:10:26.451Z,7.61
2017-03-13T17:11:26.481Z,7.75
2017-03-13T17:12:26.511Z,7.64
2017-03-13T17:13:26.566Z,7.61
2017-03-13T17:14:26.565Z,7.73
2017-03-13T17:15:26.609Z,7.63
2017-03-13T17:16:26.629Z,7.67
2017-03-13T17:17:26.643Z,7.63
2017-03-13T17:18:26.691Z,7.63
2017-03-13T17:19:26.714Z,7.59
2017-03-13T17:20:26.743Z,7.54
2017-03-13T17:21:26.766Z,7.44
2017-03-13T17:22:26.803Z,7.49
2017-03-13T17:23:26.829Z,7.49
2017-03-13T17:24:26.866Z,7.39
2017-03-13T17:25:26.895Z,7.41
2017-03-13T17:26:26.910Z,7.3
2017-03-13T17:27:26.952Z,7.33
2017-03-13T17:28:26.972Z,7.33
2017-03-13T17:29:27.006Z,7.33
2017-03-13T17:30:27.037Z,7.27
2017-03-13T17:31:27.051Z,7.29
2017-03-13T17:32:27.096Z,7.26
2017-03-13T17:33:27.124Z,7.18
2017-03-13T17:34:27.155Z,7.27
2017-03-13T17:35:27.181Z,7.26
2017-03-13T17:36:27.214Z,7.27
2017-03-13T17:37:27.241Z,7.26
2017-03-13T17:38:27.272Z,7.21
2017-03-13T17:39:27.299Z,7.3
2017-03-13T17:40:27.328Z,7.23
2017-03-13T17:41:27.354Z,7.26
2017-03-13T17:42:27.388Z,7.22
2017-03-13T17:43:27.416Z,7.27
2017-03-13T17:44:27.438Z,7.29
2017-03-13T17:45:27.472Z,7.13
2017-03-13T17:46:27.497Z,7.18
2017-03-13T17:47:27.533Z,7.18
2017-03-13T17:48:27.562Z,7.23
2017-03-13T17:49:27.585Z,7.31
2017-03-13T17:50:27.619Z,7.3
2017-03-13T17:51:27.654Z,7.3
2017-03-13T17:52:27.684Z,7.34
2017-03-13T17:53:27.714Z,7.3
2017-03-13T17:54:27.743Z,7.36
2017-03-13T17:55:27.766Z,7.34
2017-03-13T17:56:27.796Z,7.36
2017-03-13T17:57:27.830Z,7.33
2017-03-13T17:58:27.863Z,7.36
2017-03-13T17:59:27.433Z,7.36
2017-03-13T18:00:28.244Z,7.31
2017-03-13T18:01:28.918Z,7.37
2017-03-13T18:02:28.589Z,7.36
2017-03-13T18:03:28.627Z,7.34
2017-03-13T18:04:28.643Z,7.34
2017-03-13T18:06:29.072Z,7.3
2017-03-13T18:07:29.088Z,7.33
2017-03-13T18:08:29.115Z,7.31
2017-03-13T18:09:29.143Z,7.15
2017-03-13T18:10:29.178Z,7.22
2017-03-13T18:11:29.199Z,7.13
2017-03-13T18:12:29.233Z,7.13
2017-03-13T18:13:29.259Z,7.05
2017-03-13T18:14:29.287Z,7.12
2017-03-13T18:15:29.317Z,7.09
2017-03-13T18:16:29.342Z,7
2017-03-13T18:17:29.382Z,7.04
2017-03-13T18:18:29.404Z,7.03
2017-03-13T18:19:29.434Z,7
2017-03-13T18:20:29.465Z,7.11
2017-03-13T18:21:29.491Z,7.01
2017-03-13T18:22:29.526Z,7.01
2017-03-13T18:23:29.539Z,7.04
2017-03-13T18:24:29.584Z,7.04
2017-03-13T18:25:29.611Z,7.04
2017-03-13T18:26:29.642Z,6.91
2017-03-13T18:27:29.673Z,6.94
2017-03-13T18:28:29.695Z,7
2017-03-13T18:29:29.730Z,6.95
2017-03-13T18:30:29.757Z,7.01
2017-03-13T18:31:29.787Z,6.95
2017-03-13T18:32:29.798Z,6.91
2017-03-13T18:33:29.845Z,6.95
2017-03-13T18:34:29.872Z,7
2017-03-13T18:35:29.898Z,7.01
2017-03-13T18:36:30.228Z,6.98
2017-03-13T18:37:30.593Z,7.03
2017-03-13T18:38:30.277Z,7.04
2017-03-13T18:39:30.323Z,7.16
2017-03-13T18:40:30.328Z,7.15
2017-03-13T18:41:30.349Z,7.15
2017-03-13T18:42:30.488Z,7.15
2017-03-13T18:43:30.417Z,7.21
2017-03-13T18:44:30.445Z,7.18
2017-03-13T18:45:30.474Z,7.13
2017-03-13T18:46:30.505Z,7.11
2017-03-13T18:47:30.535Z,7.15
2017-03-13T18:48:30.557Z,7.05
2017-03-13T18:49:30.594Z,7.05
2017-03-13T18:50:30.624Z,7
2017-03-13T18:51:30.652Z,7.08
2017-03-13T18:52:30.680Z,6.91
2017-03-13T18:53:30.704Z,6.91
2017-03-13T18:54:30.739Z,6.91
2017-03-13T18:55:30.766Z,6.83
2017-03-13T18:56:30.795Z,6.85
2017-03-13T18:57:30.821Z,6.8
2017-03-13T18:58:30.852Z,6.78
2017-03-13T18:59:30.878Z,6.8
2017-03-13T19:00:30.906Z,6.67
2017-03-13T19:01:30.945Z,6.68
2017-03-13T19:02:30.962Z,6.78
2017-03-13T19:03:30.998Z,6.72
2017-03-13T19:04:31.014Z,6.7
2017-03-13T19:05:31.077Z,6.72
2017-03-13T19:06:31.084Z,6.73
2017-03-13T19:07:31.109Z,6.68
2017-03-13T19:08:31.141Z,6.7
2017-03-13T19:09:31.163Z,6.68
2017-03-13T19:10:31.201Z,6.68
2017-03-13T19:11:31.210Z,6.64
2017-03-13T19:12:31.255Z,6.67
2017-03-13T19:13:31.286Z,6.58
2017-03-13T19:14:31.313Z,6.6
2017-03-13T19:15:31.348Z,6.54
2017-03-13T19:16:31.360Z,6.57
2017-03-13T19:17:31.423Z,6.57
2017-03-13T19:18:31.434Z,6.47
2017-03-13T19:19:31.461Z,6.52
2017-03-13T19:20:31.484Z,6.47
2017-03-13T19:21:31.516Z,6.4
2017-03-13T19:22:31.546Z,6.43
2017-03-13T19:23:31.560Z,6.46
2017-03-13T19:24:31.603Z,6.4
2017-03-13T19:25:31.629Z,6.42
2017-03-13T19:26:31.663Z,6.42
2017-03-13T19:27:31.689Z,6.39
2017-03-13T19:28:31.713Z,6.36
2017-03-13T19:29:31.753Z,6.42
2017-03-13T19:30:31.778Z,6.42
2017-03-13T19:31:31.807Z,6.39
2017-03-13T19:32:31.837Z,6.43
2017-03-13T19:33:31.874Z,6.46
2017-03-13T19:34:31.892Z,6.44
2017-03-13T19:35:31.915Z,6.46
2017-03-13T19:36:31.952Z,6.46
2017-03-13T19:37:31.977Z,6.4
2017-03-13T19:38:32.001Z,6.39
2017-03-13T19:39:32.036Z,6.4
2017-03-13T19:40:32.067Z,6.42
2017-03-13T19:41:32.109Z,6.42
2017-03-13T19:42:32.132Z,6.31
2017-03-13T19:43:32.153Z,6.36
2017-03-13T19:44:32.175Z,6.42
2017-03-13T19:45:32.207Z,6.46
2017-03-13T19:46:32.237Z,6.37
2017-03-13T19:47:32.267Z,6.39
2017-03-13T19:48:32.293Z,6.37
2017-03-13T19:49:32.312Z,6.47
2017-03-13T19:50:32.341Z,6.51
2017-03-13T19:51:32.383Z,6.54
2017-03-13T19:52:32.412Z,6.46
2017-03-13T19:53:32.439Z,6.4
2017-03-13T19:54:32.461Z,6.43
2017-03-13T19:55:32.503Z,6.37
2017-03-13T19:56:32.744Z,6.24
2017-03-13T19:57:32.554Z,6.33
2017-03-13T19:58:32.581Z,6.25
2017-03-13T19:59:32.615Z,6.21
2017-03-13T20:00:32.639Z,6.2
2017-03-13T20:01:32.668Z,6.2
2017-03-13T20:02:32.697Z,6.14
2017-03-13T20:03:32.720Z,6.14
2017-03-13T20:04:32.756Z,6.03
2017-03-13T20:05:32.801Z,5.99
2017-03-13T20:06:32.816Z,5.87
2017-03-13T20:07:32.837Z,5.88
2017-03-13T20:08:32.861Z,5.78
2017-03-13T20:09:32.902Z,5.72
2017-03-13T20:10:32.926Z,5.81
2017-03-13T20:11:32.964Z,5.63